Latest Weather Observations for Wudinna Airport

IDS60801

Issued at 6:35 pm CDT Monday 20 October 2014 (issued every 30 minutes, with the page automatically refreshed every 10 minutes)

About weather observations | Map of weather stations | Latest weather observations for SA | Other Formats
Station Details ID: 018083 Name: WUDINNA AERO Lat: -33.04 Lon: 135.45 Height: 86.4 m
Data from the previous 72 hours. | See also: Recent months at Wudinna Airport
Date/Time
CDT
Temp
°C
App
Temp
°C
Dew
Point
Rel
Hum
%
Delta-T
°C
Wind Press
QNH
hPa
Press
MSL
hPa
Rain
since 9 am
mm
Dir
 
Spd
km/h
Gust
km/h
Spd
kts
Gust
kts
20/06:30pm 34.7 29.7 -8.1 6 18.5 N 11 17 6 9 1015.6 - 0.0
20/06:00pm 36.4 30.2 -9.2 5 19.7 N 17 24 9 13 1015.6 1015.5 0.0
20/05:30pm 36.5 30.3 -9.2 5 19.8 N 17 26 9 14 1015.7 - 0.0
20/05:00pm 37.0 31.2 -8.8 5 20.0 N 15 28 8 15 1015.9 - 0.0
20/04:30pm 36.9 30.5 -6.5 6 19.6 N 19 26 10 14 1016.0 - 0.0
20/04:00pm 36.5 31.4 -4.8 7 19.1 ENE 13 24 7 13 1016.3 - 0.0
20/03:30pm 37.0 31.4 -6.5 6 19.7 NE 15 24 8 13 1016.4 - 0.0
20/03:00pm 37.0 30.4 -6.5 6 19.7 N 20 32 11 17 1016.9 1016.8 0.0
20/02:30pm 36.7 29.4 -6.7 6 19.5 N 24 39 13 21 1017.5 - 0.0
20/02:00pm 35.8 28.6 -5.3 7 18.8 NNE 24 37 13 20 1017.8 - 0.0
20/01:30pm 35.9 28.7 -5.2 7 18.8 N 24 37 13 20 1018.3 - 0.0
20/01:00pm 34.5 26.8 -6.3 7 18.2 N 26 37 14 20 1018.8 - 0.0
20/12:30pm 35.2 28.1 -4.0 8 18.2 NNE 24 33 13 18 1019.1 - 0.0
20/12:00pm 34.2 28.2 -1.7 10 17.2 NNE 20 30 11 16 1019.8 1019.6 0.0
20/11:30am 33.1 26.6 -2.6 10 16.7 NE 22 32 12 17 1020.2 - 0.0
20/11:00am 32.5 26.1 -1.7 11 16.2 NE 22 30 12 16 1020.5 - 0.0
20/10:30am 30.4 24.6 -0.1 14 14.6 NE 20 30 11 16 1020.7 - 0.0
20/10:00am 28.7 22.9 2.1 18 13.1 NE 22 32 12 17 1020.9 - 0.0
20/09:30am 26.0 21.6 5.0 26 10.7 ENE 17 22 9 12 1021.0 - 0.0
20/09:00am 22.5 18.0 5.9 34 8.4 ENE 19 22 10 12 1020.8 1020.6 0.0
20/08:30am 19.7 16.9 6.8 43 6.5 E 11 19 6 10 1020.7 - 0.0
20/08:00am 16.2 13.0 6.9 54 4.6 E 13 17 7 9 1020.5 - 0.0
20/07:30am 12.9 10.0 6.5 65 3.1 SE 11 15 6 8 1020.2 - 0.0
20/07:00am 10.5 5.8 5.1 69 2.5 S 19 20 10 11 1020.0 - 0.0
20/06:30am 13.5 10.5 6.1 61 3.5 E 11 15 6 8 1019.6 - 0.0
20/06:00am 13.5 10.8 7.5 67 2.9 E 11 15 6 8 1019.2 1019.1 0.0
20/05:30am 10.9 8.3 6.1 72 2.2 SE 9 11 5 6 1019.1 - 0.0
20/05:00am 11.7 9.3 7.2 74 2.2 ESE 9 13 5 7 1019.5 - 0.0
20/04:30am 12.0 9.5 6.5 69 2.6 SSE 9 11 5 6 1019.1 - 0.0
20/04:00am 14.5 12.3 7.8 64 3.3 E 9 15 5 8 1019.1 - 0.0
20/03:30am 12.2 10.0 7.9 75 2.1 SE 9 13 5 7 1019.4 - 0.0
20/03:00am 14.0 10.9 9.0 72 2.5 ESE 15 20 8 11 1019.5 1019.4 0.0
20/02:30am 13.6 11.0 9.5 76 2.1 ESE 13 17 7 9 1019.8 - 0.0
20/02:00am 13.9 11.3 9.5 75 2.3 ESE 13 17 7 9 1019.9 - 0.0
20/01:30am 14.4 12.4 10.2 76 2.2 ESE 11 17 6 9 1020.1 - 0.0
20/01:00am 14.7 13.5 10.3 75 2.3 SE 7 9 4 5 1020.1 - 0.0
20/12:30am 16.0 14.2 10.7 71 2.8 E 11 15 6 8 1020.2 - 0.0
20/12:00am 16.6 14.5 11.3 71 2.9 E 13 15 7 8 1020.6 1020.4 0.0
 
Date/Time
CDT
Temp
°C
App
Temp
°C
Dew
Point
Rel
Hum
%
Delta-T
°C
Wind Press
QNH
hPa
Press
MSL
hPa
Rain
since 9 am
mm
Dir
 
Spd
km/h
Gust
km/h
Spd
kts
Gust
kts
19/11:30pm 17.4 16.0 11.0 66 3.5 E 9 13 5 7 1020.8 - 0.0
19/11:00pm 18.8 17.5 11.1 61 4.2 ESE 9 19 5 10 1020.8 - 0.0
19/10:30pm 19.7 18.4 10.1 54 5.2 SE 7 13 4 7 1021.0 - 0.0
19/10:00pm 20.8 17.5 9.7 49 6.0 ESE 17 24 9 13 1020.8 - 0.0
19/09:30pm 22.6 17.4 3.7 29 9.2 SE 20 30 11 16 1020.3 - 0.0
19/09:00pm 24.0 18.5 0.4 21 10.9 ESE 19 28 10 15 1020.0 1019.8 0.0
19/08:30pm 24.9 19.2 0.4 20 11.4 SE 20 32 11 17 1019.4 - 0.0
19/08:00pm 26.4 20.3 0.2 18 12.3 ESE 22 35 12 19 1018.9 - 0.0
19/07:30pm 28.1 20.7 -0.9 15 13.5 ESE 28 39 15 21 1018.3 - 0.0
19/07:00pm 30.3 22.8 -1.2 13 14.8 SE 28 39 15 21 1017.6 - 0.0
19/06:53pm 31.0 23.5 -1.7 12 15.3 SE 28 43 15 23 1017.5 - 0.0
19/06:30pm 33.5 28.6 -7.0 7 17.7 ESE 11 15 6 8 1017.1 - 0.0
19/06:00pm 34.4 30.2 -8.3 6 18.4 E 7 19 4 10 1016.8 1016.7 0.0
19/05:30pm 35.1 28.6 -7.8 6 18.7 E 19 26 10 14 1016.6 - 0.0
19/05:00pm 35.8 30.9 -7.3 6 19.1 SSE 11 17 6 9 1016.6 - 0.0
19/04:30pm 36.1 30.8 -7.1 6 19.2 NW 13 20 7 11 1016.8 - 0.0
19/04:00pm 35.4 30.8 -7.6 6 18.9 SSE 9 15 5 8 1017.0 - 0.0
19/03:30pm 36.2 30.5 -7.0 6 19.3 SSW 15 20 8 11 1017.2 - 0.0
19/03:00pm 34.9 30.3 -8.0 6 18.6 NE 9 13 5 7 1017.5 1017.4 0.0
19/02:30pm 34.8 29.8 -8.0 6 18.6 NNW 11 24 6 13 1017.8 - 0.0
19/02:00pm 35.0 29.6 -7.9 6 18.7 N 13 20 7 11 1018.1 - 0.0
19/01:30pm 34.8 30.6 -8.0 6 18.6 NW 7 28 4 15 1018.3 - 0.0
19/01:00pm 33.5 27.1 -7.0 7 17.7 NNW 19 30 10 16 1018.6 - 0.0
19/12:30pm 34.2 27.3 -6.5 7 18.0 N 22 32 12 17 1018.6 - 0.0
19/12:00pm 32.7 25.8 -5.8 8 17.0 N 22 33 12 18 1019.0 1018.9 0.0
19/11:30am 32.4 24.4 -6.0 8 16.9 NNW 28 37 15 20 1019.3 - 0.0
19/11:00am 32.6 25.0 -5.9 8 17.0 N 26 41 14 22 1019.4 - 0.0
19/10:30am 31.0 22.3 -5.5 9 16.0 NNW 32 44 17 24 1019.1 - 0.0
19/10:00am 30.9 22.5 -5.6 9 16.0 N 30 41 16 22 1019.1 - 0.0
19/09:30am 28.7 20.8 -4.6 11 14.6 N 28 39 15 21 1018.8 - 0.0
19/09:00am 27.2 19.2 -5.8 11 13.9 N 28 39 15 21 1018.8 1018.7 0.0
19/08:30am 25.7 18.4 -5.8 12 13.1 N 24 33 13 18 1018.6 - 0.0
19/08:00am 23.7 16.8 -6.3 13 12.2 N 22 30 12 16 1018.6 - 0.0
19/07:30am 22.5 15.2 -6.3 14 11.5 N 24 30 13 16 1018.2 - 0.0
19/07:00am 21.7 15.2 -6.0 15 11.1 N 20 28 11 15 1018.0 - 0.0
19/06:30am 21.2 14.7 -6.4 15 10.9 N 20 26 11 14 1017.6 - 0.0
19/06:00am 21.6 15.0 -7.0 14 11.2 N 20 26 11 14 1017.1 1017.0 0.0
19/05:30am 22.3 15.4 -6.5 14 11.5 N 22 28 12 15 1016.8 - 0.0
19/05:00am 22.7 16.1 -7.1 13 11.8 N 20 26 11 14 1016.4 - 0.0
19/04:30am 21.5 15.1 -7.1 14 11.2 N 19 22 10 12 1016.4 - 0.0
19/04:00am 22.9 16.3 -6.9 13 11.8 N 20 26 11 14 1016.7 - 0.0
19/03:30am 22.3 15.7 -7.4 13 11.6 N 20 24 11 13 1016.8 - 0.0
19/03:00am 23.0 16.0 -6.9 13 11.9 N 22 28 12 15 1016.8 1016.7 0.0
19/02:30am 24.2 16.8 -7.0 12 12.5 N 24 32 13 17 1017.0 - 0.0
19/02:00am 25.1 17.7 -7.4 11 13.1 N 24 32 13 17 1017.0 - 0.0
19/01:30am 25.3 17.5 -7.2 11 13.2 N 26 35 14 19 1017.4 - 0.0
19/01:00am 26.0 18.2 -7.9 10 13.6 N 26 35 14 19 1017.6 - 0.0
19/12:30am 26.0 18.6 -7.9 10 13.6 N 24 32 13 17 1017.6 - 0.0
19/12:00am 24.9 18.2 -7.5 11 13.0 NNE 20 28 11 15 1017.6 1017.5 0.0
 
Date/Time
CDT
Temp
°C
App
Temp
°C
Dew
Point
Rel
Hum
%
Delta-T
°C
Wind Press
QNH
hPa
Press
MSL
hPa
Rain
since 9 am
mm
Dir
 
Spd
km/h
Gust
km/h
Spd
kts
Gust
kts
18/11:30pm 25.3 18.2 -8.5 10 13.4 NNE 22 28 12 15 1017.8 - 0.0
18/11:00pm 24.8 18.1 -7.6 11 13.0 NNE 20 28 11 15 1017.8 - 0.0
18/10:30pm 24.5 18.0 -7.9 11 12.8 NNE 19 26 10 14 1017.9 - 0.0
18/10:00pm 24.5 18.0 -7.9 11 12.8 NNE 19 24 10 13 1018.1 - 0.0
18/09:30pm 23.3 17.2 -7.7 12 12.2 NNE 17 20 9 11 1018.2 - 0.0
18/09:00pm 20.5 14.6 -9.8 12 11.1 NNE 15 20 8 11 1018.1 1018.0 0.0
18/08:30pm 20.0 14.9 -9.2 13 10.8 NNE 11 13 6 7 1017.8 - 0.0
18/08:00pm 22.8 17.8 -8.1 12 12.0 NNE 11 15 6 8 1017.4 - 0.0
18/07:58pm 23.2 18.2 -7.7 12 12.1 NNE 11 15 6 8 1017.4 - 0.0
18/07:30pm 28.3 23.4 -7.6 9 14.8 NNE 11 13 6 7 1017.0 - 0.0
18/07:00pm 31.3 25.9 -8.6 7 16.7 N 13 22 7 12 1016.7 - 0.0
18/06:30pm 32.8 26.2 -9.5 6 17.6 N 19 28 10 15 1016.6 - 0.0
18/06:00pm 33.1 25.9 -9.2 6 17.7 NNE 22 33 12 18 1016.5 1016.4 0.0
18/05:30pm 34.4 28.3 -8.3 6 18.4 N 17 28 9 15 1016.6 - 0.0
18/05:00pm 33.7 27.3 -6.8 7 17.8 N 19 26 10 14 1016.6 - 0.0
18/04:30pm 32.9 26.4 -7.4 7 17.4 N 19 26 10 14 1016.8 - 0.0
18/04:00pm 33.2 26.2 -7.2 7 17.6 NW 22 32 12 17 1016.9 - 0.0
18/03:30pm 33.6 27.2 -6.9 7 17.7 N 19 26 10 14 1017.1 - 0.0
18/03:00pm 33.9 27.3 -6.7 7 17.9 N 20 32 11 17 1017.6 1017.5 0.0
18/02:30pm 33.7 27.1 -6.8 7 17.8 NW 20 32 11 17 1017.9 - 0.0
18/02:00pm 34.4 27.1 -6.3 7 18.1 N 24 35 13 19 1018.2 - 0.0
18/01:33pm 33.5 25.4 -7.0 7 17.7 N 28 46 15 25 1018.5 - 0.0
18/01:30pm 33.7 26.7 -6.8 7 17.8 N 22 35 12 19 1018.5 - 0.0
18/01:00pm 33.3 24.8 -7.1 7 17.6 N 30 41 16 22 1019.0 - 0.0
18/12:30pm 33.0 24.3 -5.6 8 17.2 NNW 32 43 17 23 1019.2 - 0.0
18/12:00pm 31.2 22.1 -6.9 8 16.3 N 33 46 18 25 1019.2 1019.1 0.0
18/11:36am 31.1 21.6 -7.0 8 16.3 N 35 54 19 29 1019.2 - 0.0
18/11:30am 30.9 21.2 -5.6 9 16.0 N 37 52 20 28 1019.3 - 0.0
18/11:00am 29.9 20.1 -6.4 9 15.5 N 37 56 20 30 1019.4 - 0.0
18/10:43am 30.2 20.5 -6.1 9 15.7 N 37 56 20 30 1019.5 - 0.0
18/10:30am 30.5 21.1 -5.9 9 15.8 N 35 52 19 28 1019.5 - 0.0
18/10:18am 29.2 18.2 -6.9 9 15.2 N 43 61 23 33 1019.6 - 0.0
18/10:00am 28.9 19.2 -5.7 10 14.9 N 37 54 20 29 1019.8 - 0.0
18/09:46am 27.8 18.0 -6.6 10 14.4 N 37 57 20 31 1019.9 - 0.0
18/09:30am 27.7 18.7 -6.6 10 14.4 N 33 46 18 25 1020.1 - 0.0
18/09:00am 26.3 19.0 -6.5 11 13.5 N 24 35 13 19 1020.2 1020.0 0.0
18/08:30am 24.7 18.2 -7.7 11 12.9 N 19 32 10 17 1020.2 - 0.0
18/08:00am 23.2 15.4 -7.7 12 12.1 N 26 37 14 20 1019.6 - 0.0
18/07:30am 22.2 13.6 -7.5 13 11.6 N 30 43 16 23 1018.9 - 0.0
18/07:00am 21.7 12.7 -7.9 13 11.4 N 32 43 17 23 1018.5 - 0.0
18/06:30am 21.1 12.6 -7.4 14 11.0 N 30 43 16 23 1018.4 - 0.0
18/06:00am 22.1 13.0 -7.6 13 11.5 N 33 43 18 23 1017.6 1017.5 0.0
18/05:30am 21.4 13.2 -8.1 13 11.3 N 28 35 15 19 1017.8 - 0.0
18/05:00am 21.9 13.3 -7.7 13 11.5 N 30 39 16 21 1017.7 - 0.0
18/04:30am 21.2 13.0 -7.3 14 11.0 N 28 33 15 18 1017.5 - 0.0
18/04:00am 21.5 13.3 -8.0 13 11.3 N 28 35 15 19 1017.6 - 0.0
18/03:30am 21.4 13.6 -8.1 13 11.3 N 26 35 14 19 1017.7 - 0.0
18/03:00am 21.8 13.6 -7.8 13 11.4 N 28 33 15 18 1017.8 1017.7 0.0
18/02:30am 22.4 14.2 -7.3 13 11.7 N 28 35 15 19 1017.9 - 0.0
18/02:00am 22.5 14.7 -7.3 13 11.7 N 26 35 14 19 1018.0 - 0.0
18/01:30am 23.9 15.8 -7.2 12 12.4 N 28 35 15 19 1018.2 - 0.0
18/01:00am 22.5 15.9 -7.3 13 11.7 NNE 20 26 11 14 1018.3 - 0.0
18/12:30am 22.6 15.9 -8.2 12 11.9 NNE 20 26 11 14 1018.6 - 0.0
18/12:00am 22.8 16.1 -8.1 12 12.0 NNE 20 32 11 17 1018.6 1018.5 0.0
 
Date/Time
CDT
Temp
°C
App
Temp
°C
Dew
Point
Rel
Hum
%
Delta-T
°C
Wind Press
QNH
hPa
Press
MSL
hPa
Rain
since 9 am
mm
Dir
 
Spd
km/h
Gust
km/h
Spd
kts
Gust
kts
17/11:30pm 23.6 17.0 -7.4 12 12.3 NNE 20 28 11 15 1018.5 - 0.0
17/11:00pm 22.8 16.7 -8.1 12 12.0 NNE 17 22 9 12 1018.6 - 0.0
17/10:30pm 23.3 17.2 -7.7 12 12.2 NNE 17 20 9 11 1018.7 - 0.0
17/10:00pm 22.2 16.0 -8.5 12 11.7 NNE 17 20 9 11 1018.8 - 0.0
17/09:30pm 21.3 15.5 -8.2 13 11.2 NNE 15 17 8 9 1018.8 - 0.0
17/09:00pm 20.2 14.5 -7.2 15 10.5 NE 15 17 8 9 1018.6 1018.5 0.0
17/08:30pm 22.0 16.7 -7.6 13 11.5 NNE 13 17 7 9 1018.4 - 0.0
17/08:00pm 24.4 19.1 -6.8 12 12.6 NE 13 17 7 9 1018.0 - 0.0
17/07:30pm 27.6 21.8 -8.1 9 14.5 NNE 15 19 8 10 1017.7 - 0.0
17/07:00pm 30.2 24.1 -7.7 8 15.9 NNE 17 24 9 13 1017.6 - 0.0

Other Formats:

Comma delimited format used in spreadsheet applications
http://www.bom.gov.au/fwo/IDS60801/IDS60801.95654.axf

JavaScript Object Notation format (JSON) in row-major order
http://www.bom.gov.au/fwo/IDS60801/IDS60801.95654.json